createdAt,value
2019-02-07T00:00:48.788Z,100943.98
2019-02-07T00:02:23.309Z,100944.31
2019-02-07T00:03:58.539Z,100923.95
2019-02-07T00:05:32.625Z,100934.30
2019-02-07T00:07:06.756Z,100935.64
2019-02-07T00:08:41.769Z,100932.34
2019-02-07T00:10:15.873Z,100924.67
2019-02-07T00:11:49.792Z,100923.67
2019-02-07T00:13:23.765Z,100921.50
2019-02-07T00:14:57.625Z,100925.84
2019-02-07T00:16:31.602Z,100922.34
2019-02-07T00:18:05.604Z,100927.52
2019-02-07T00:19:39.507Z,100914.00
2019-02-07T00:21:14.331Z,100912.66
2019-02-07T00:22:48.542Z,100910.33
2019-02-07T00:24:22.401Z,100911.33
2019-02-07T00:25:56.242Z,100913.37
2019-02-07T00:27:30.353Z,100908.36
2019-02-07T00:29:04.231Z,100915.37
2019-02-07T00:30:38.981Z,100922.06
2019-02-07T00:32:13.181Z,100920.39
2019-02-07T00:33:47.255Z,100922.72
2019-02-07T00:35:22.217Z,100921.72
2019-02-07T00:36:56.428Z,100919.73
2019-02-07T00:38:31.352Z,100916.42
2019-02-07T00:40:05.233Z,100915.42
2019-02-07T00:41:39.154Z,100914.09
2019-02-07T00:43:13.140Z,100905.58
2019-02-07T00:44:51.123Z,100910.42
2019-02-07T00:46:21.158Z,100905.58
2019-02-07T00:47:55.464Z,100908.08
2019-02-07T00:49:29.461Z,100909.42
2019-02-07T00:51:03.849Z,100904.91
2019-02-07T00:52:37.881Z,100904.75
2019-02-07T00:54:12.066Z,100902.78
2019-02-07T00:55:46.226Z,100905.92
2019-02-07T00:57:20.184Z,100900.44
2019-02-07T00:58:54.030Z,100903.12
2019-02-07T01:00:31.152Z,100896.77
2019-02-07T01:02:05.008Z,100892.77
2019-02-07T01:03:39.055Z,100892.09
2019-02-07T01:05:13.106Z,100898.78
2019-02-07T01:06:47.330Z,100900.11
2019-02-07T01:08:21.336Z,100900.61
2019-02-07T01:09:55.122Z,100904.45
2019-02-07T01:11:30.036Z,100905.29
2019-02-07T01:13:03.983Z,100897.78
2019-02-07T01:14:38.457Z,100898.95
2019-02-07T01:16:12.471Z,100894.11
2019-02-07T01:17:46.364Z,100895.44
2019-02-07T01:19:21.016Z,100898.45
2019-02-07T01:20:55.213Z,100894.31
2019-02-07T01:22:29.727Z,100892.10
2019-02-07T01:24:03.736Z,100885.42
2019-02-07T01:25:38.798Z,100885.42
2019-02-07T01:27:12.613Z,100884.45
2019-02-07T01:28:46.464Z,100879.11
2019-02-07T01:30:21.492Z,100874.11
2019-02-07T01:31:55.248Z,100871.44
2019-02-07T01:33:29.194Z,100868.77
2019-02-07T01:35:03.085Z,100869.09
2019-02-07T01:36:37.000Z,100867.27
2019-02-07T01:38:11.109Z,100876.78
2019-02-07T01:39:45.729Z,100871.09
2019-02-07T01:41:19.629Z,100877.11
2019-02-07T01:42:55.685Z,100875.27
2019-02-07T01:44:27.829Z,100873.11
2019-02-07T01:46:02.030Z,100880.31
2019-02-07T01:47:36.056Z,100879.31
2019-02-07T01:49:10.471Z,100875.31
2019-02-07T01:50:45.482Z,100878.81
2019-02-07T01:52:19.505Z,100877.98
2019-02-07T01:53:53.410Z,100877.81
2019-02-07T01:55:27.514Z,100884.50
2019-02-07T01:57:01.416Z,100876.81
2019-02-07T01:58:35.210Z,100876.14
2019-02-07T02:00:09.713Z,100865.45
2019-02-07T02:01:43.528Z,100861.11
2019-02-07T02:03:17.492Z,100855.13
2019-02-07T02:04:51.751Z,100851.13
2019-02-07T02:06:25.528Z,100856.80
2019-02-07T02:07:59.450Z,100848.78
2019-02-07T02:09:33.635Z,100855.47
2019-02-07T02:11:06.617Z,100858.14
2019-02-07T02:12:40.643Z,100855.63
2019-02-07T02:14:14.548Z,100853.46
2019-02-07T02:15:48.374Z,100852.80
2019-02-07T02:17:22.352Z,100847.95
2019-02-07T02:18:56.540Z,100842.11
2019-02-07T02:20:31.351Z,100848.11
2019-02-07T02:22:05.121Z,100845.11
2019-02-07T02:23:39.069Z,100846.78
2019-02-07T02:25:11.974Z,100845.80
2019-02-07T02:26:45.942Z,100842.80
2019-02-07T02:28:18.828Z,100839.45
2019-02-07T02:29:52.752Z,100843.46
2019-02-07T02:31:26.577Z,100840.29
2019-02-07T02:33:00.420Z,100845.47
2019-02-07T02:34:34.065Z,100840.13
2019-02-07T02:36:07.009Z,100841.45
2019-02-07T02:37:40.036Z,100847.50
2019-02-07T02:39:13.978Z,100847.83
2019-02-07T02:40:48.741Z,100843.48
2019-02-07T02:42:22.742Z,100833.63
2019-02-07T02:43:56.617Z,100830.95
2019-02-07T02:45:37.576Z,100828.61
2019-02-07T02:47:06.673Z,100837.47
2019-02-07T02:48:39.774Z,100836.47
2019-02-07T02:50:13.556Z,100843.01
2019-02-07T02:51:47.325Z,100837.16
2019-02-07T02:53:21.390Z,100834.31
2019-02-07T02:54:58.304Z,100832.14
2019-02-07T02:56:33.267Z,100823.95
2019-02-07T02:58:07.044Z,100826.45
2019-02-07T02:59:40.879Z,100826.13
2019-02-07T03:01:47.255Z,100826.45
2019-02-07T03:03:32.213Z,100825.12
2019-02-07T03:05:24.270Z,100821.44
2019-02-07T03:07:06.237Z,100825.28
2019-02-07T03:08:51.196Z,100825.78
2019-02-07T03:10:37.293Z,100824.12
2019-02-07T03:12:16.344Z,100825.28
2019-02-07T03:13:54.384Z,100822.14
2019-02-07T03:15:49.578Z,100827.95
2019-02-07T03:18:26.877Z,100827.31
2019-02-07T03:21:06.770Z,100821.80
2019-02-07T03:23:04.965Z,100826.14
2019-02-07T03:24:44.013Z,100830.48
2019-02-07T03:27:27.167Z,100824.63
2019-02-07T03:29:05.239Z,100833.82
2019-02-07T03:30:45.362Z,100833.82
2019-02-07T03:33:27.904Z,100830.17
2019-02-07T03:35:08.078Z,100828.84
2019-02-07T03:36:49.965Z,100823.95
2019-02-07T03:39:32.784Z,100819.11
2019-02-07T03:41:12.713Z,100815.47
2019-02-07T03:43:04.945Z,100815.30
2019-02-07T03:44:57.983Z,100815.30
2019-02-07T03:46:36.832Z,100807.78
2019-02-07T03:48:14.931Z,100804.77
2019-02-07T03:49:54.680Z,100801.92
2019-02-07T03:51:37.491Z,100806.77
2019-02-07T03:53:16.272Z,100809.45
2019-02-07T03:54:57.473Z,100812.12
2019-02-07T03:56:36.190Z,100815.63
2019-02-07T03:58:16.233Z,100808.44
2019-02-07T04:02:00.393Z,100815.45
2019-02-07T04:03:40.336Z,100817.13
2019-02-07T04:05:18.536Z,100813.11
2019-02-07T04:07:01.670Z,100805.25
2019-02-07T04:08:40.576Z,100805.75
2019-02-07T04:10:18.547Z,100798.06
2019-02-07T04:11:58.781Z,100802.07
2019-02-07T04:15:42.269Z,100802.44
2019-02-07T04:17:29.283Z,100792.71
2019-02-07T04:19:08.509Z,100801.42
2019-02-07T04:20:46.522Z,100798.58
2019-02-07T04:22:29.828Z,100796.74
2019-02-07T04:24:38.110Z,100800.23
2019-02-07T04:26:17.864Z,100796.73
2019-02-07T04:28:58.656Z,100798.06
2019-02-07T04:31:35.935Z,100799.40
2019-02-07T04:33:21.207Z,100801.10
2019-02-07T04:37:06.282Z,100794.42
2019-02-07T04:38:53.394Z,100804.11
2019-02-07T04:40:38.153Z,100801.43
2019-02-07T04:42:52.347Z,100800.92
2019-02-07T04:44:36.420Z,100803.43
2019-02-07T04:46:26.770Z,100806.44
2019-02-07T04:47:57.145Z,100806.10
2019-02-07T04:50:34.726Z,100814.46
2019-02-07T04:52:13.769Z,100822.31
2019-02-07T04:53:52.462Z,100816.45
2019-02-07T04:55:32.937Z,100818.12
2019-02-07T04:57:14.705Z,100820.16
2019-02-07T04:59:02.755Z,100827.00
2019-02-07T05:00:44.770Z,100822.81
2019-02-07T05:02:36.881Z,100823.83
2019-02-07T05:04:51.333Z,100826.83
2019-02-07T05:06:34.139Z,100829.66
2019-02-07T05:08:47.528Z,100828.19
2019-02-07T05:11:29.247Z,100831.52
2019-02-07T05:13:09.185Z,100823.16
2019-02-07T05:16:50.865Z,100820.81
2019-02-07T05:18:29.937Z,100826.00
2019-02-07T05:20:10.775Z,100835.53
2019-02-07T05:21:50.657Z,100834.35
2019-02-07T05:23:33.532Z,100829.17
2019-02-07T05:25:12.221Z,100827.84
2019-02-07T05:26:59.364Z,100831.84
2019-02-07T05:29:37.077Z,100830.01
2019-02-07T05:31:19.170Z,100822.47
2019-02-07T05:33:00.345Z,100822.14
2019-02-07T05:36:43.266Z,100819.66
2019-02-07T05:38:24.369Z,100833.19
2019-02-07T05:40:05.481Z,100830.51
2019-02-07T05:42:41.037Z,100821.98
2019-02-07T05:44:21.130Z,100832.51
2019-02-07T05:46:59.842Z,100824.48
2019-02-07T05:48:38.136Z,100821.96
2019-02-07T05:52:22.971Z,100821.48
2019-02-07T05:54:00.742Z,100808.77
2019-02-07T05:55:59.068Z,100813.11
2019-02-07T05:57:37.074Z,100812.10
2019-02-07T05:59:46.600Z,100822.12
2019-02-07T06:01:26.419Z,100823.80
2019-02-07T06:03:34.674Z,100821.48
2019-02-07T06:06:14.895Z,100820.80
2019-02-07T06:07:59.689Z,100828.66
2019-02-07T06:09:40.989Z,100827.65
2019-02-07T06:11:19.742Z,100825.47
2019-02-07T06:12:58.680Z,100825.80
2019-02-07T06:14:37.887Z,100822.30
2019-02-07T06:18:18.793Z,100824.14
2019-02-07T06:19:57.774Z,100821.13
2019-02-07T06:21:40.808Z,100816.09
2019-02-07T06:23:29.860Z,100818.42
2019-02-07T06:25:08.490Z,100815.92
2019-02-07T06:26:46.346Z,100814.75
2019-02-07T06:28:28.257Z,100822.78
2019-02-07T06:30:13.252Z,100827.81
2019-02-07T06:31:52.380Z,100832.48
2019-02-07T06:33:35.347Z,100824.13
2019-02-07T06:36:18.209Z,100821.95
2019-02-07T06:37:57.395Z,100823.63
2019-02-07T06:39:42.657Z,100831.48
2019-02-07T06:41:20.528Z,100837.16
2019-02-07T06:45:06.016Z,100845.20
2019-02-07T06:46:58.207Z,100853.89
2019-02-07T06:48:38.257Z,100854.57
2019-02-07T06:50:16.897Z,100853.55
2019-02-07T06:52:02.004Z,100856.59
2019-02-07T06:53:58.150Z,100856.23
2019-02-07T06:55:39.015Z,100853.91
2019-02-07T06:57:22.985Z,100854.05
2019-02-07T06:59:00.870Z,100847.87
2019-02-07T07:01:12.362Z,100848.05
2019-02-07T07:03:49.242Z,100858.41
2019-02-07T07:06:27.869Z,100866.27
2019-02-07T07:08:06.867Z,100868.95
2019-02-07T07:11:51.492Z,100875.31
2019-02-07T07:15:34.169Z,100863.11
2019-02-07T07:17:25.424Z,100857.25
2019-02-07T07:19:55.381Z,100873.47
2019-02-07T07:21:34.021Z,100871.95
2019-02-07T07:23:16.012Z,100872.96
2019-02-07T07:24:54.695Z,100875.64
2019-02-07T07:26:51.750Z,100876.47
2019-02-07T07:28:30.866Z,100890.03
2019-02-07T07:30:09.880Z,100897.39
2019-02-07T07:33:56.686Z,100901.91
2019-02-07T07:35:36.464Z,100906.77
2019-02-07T07:37:14.325Z,100903.07
2019-02-07T07:39:01.377Z,100902.09
2019-02-07T07:40:45.492Z,100907.09
2019-02-07T07:42:25.215Z,100904.41
2019-02-07T07:46:06.855Z,100910.79
2019-02-07T07:48:42.300Z,100909.12
2019-02-07T07:52:22.891Z,100908.61
2019-02-07T07:54:02.096Z,100912.96
2019-02-07T07:55:43.163Z,100915.64
2019-02-07T07:57:21.132Z,100919.48
2019-02-07T07:59:02.126Z,100915.47
2019-02-07T08:00:42.113Z,100910.95
2019-02-07T08:04:23.707Z,100910.11
2019-02-07T08:06:12.817Z,100905.92
2019-02-07T08:07:55.521Z,100901.73
2019-02-07T08:09:39.852Z,100906.75
2019-02-07T08:11:31.920Z,100905.41
2019-02-07T08:13:22.182Z,100897.71
2019-02-07T08:15:11.373Z,100903.06
2019-02-07T08:16:50.977Z,100901.08
2019-02-07T08:18:30.367Z,100905.25
2019-02-07T08:22:17.822Z,100902.40
2019-02-07T08:23:56.699Z,100889.19
2019-02-07T08:26:39.436Z,100891.36
2019-02-07T08:28:38.392Z,100893.35
2019-02-07T08:31:19.923Z,100894.02
2019-02-07T08:32:57.809Z,100890.50
2019-02-07T08:35:10.124Z,100890.36
2019-02-07T08:37:48.947Z,100883.98
2019-02-07T08:39:30.894Z,100888.16
2019-02-07T08:41:17.948Z,100883.98
2019-02-07T08:43:31.112Z,100881.64
2019-02-07T08:45:18.134Z,100885.16
2019-02-07T08:47:05.190Z,100881.97
2019-02-07T08:48:44.821Z,100881.97
2019-02-07T08:50:25.638Z,100889.66
2019-02-07T08:52:04.425Z,100881.94
2019-02-07T08:53:42.349Z,100876.95
2019-02-07T08:56:24.415Z,100882.63
2019-02-07T08:58:04.341Z,100873.26
2019-02-07T08:59:46.124Z,100870.25
2019-02-07T09:01:57.413Z,100875.10
2019-02-07T09:04:11.675Z,100874.27
2019-02-07T09:05:49.501Z,100864.89
2019-02-07T09:08:30.366Z,100866.23
2019-02-07T09:10:19.555Z,100867.39
2019-02-07T09:11:57.640Z,100869.56
2019-02-07T09:13:46.911Z,100870.41
2019-02-07T09:15:28.120Z,100872.58
2019-02-07T09:17:08.140Z,100863.38
2019-02-07T09:18:46.926Z,100865.05
2019-02-07T09:21:23.430Z,100864.03
2019-02-07T09:23:06.273Z,100861.68
2019-02-07T09:24:45.574Z,100858.50
2019-02-07T09:26:24.558Z,100861.17
2019-02-07T09:28:02.512Z,100859.33
2019-02-07T09:29:44.602Z,100866.53
2019-02-07T09:31:23.381Z,100870.38
2019-02-07T09:33:02.330Z,100867.19
2019-02-07T09:35:16.613Z,100867.19
2019-02-07T09:36:58.478Z,100872.91
2019-02-07T09:38:38.360Z,100869.55
2019-02-07T09:40:22.289Z,100871.22
2019-02-07T09:42:06.216Z,100875.23
2019-02-07T09:45:50.923Z,100863.50
2019-02-07T09:47:44.922Z,100871.87
2019-02-07T09:49:24.697Z,100859.48
2019-02-07T09:51:02.751Z,100863.33
2019-02-07T09:52:43.764Z,100855.80
2019-02-07T09:54:23.549Z,100868.18
2019-02-07T09:56:35.814Z,100861.16
2019-02-07T09:58:22.631Z,100858.30
2019-02-07T10:00:35.145Z,100855.47
2019-02-07T10:02:33.469Z,100859.81
2019-02-07T10:04:19.757Z,100861.48
2019-02-07T10:06:29.973Z,100862.97
2019-02-07T10:08:08.616Z,100855.44
2019-02-07T10:09:46.357Z,100854.10
2019-02-07T10:11:37.235Z,100857.61
2019-02-07T10:13:33.654Z,100853.59
2019-02-07T10:17:15.439Z,100859.78
2019-02-07T10:20:57.214Z,100855.41
2019-02-07T10:22:52.901Z,100855.08
2019-02-07T10:25:04.225Z,100854.58
2019-02-07T10:26:47.519Z,100863.81
2019-02-07T10:29:30.368Z,100860.12
2019-02-07T10:31:13.453Z,100854.08
2019-02-07T10:32:54.970Z,100857.23
2019-02-07T10:34:34.197Z,100850.20
2019-02-07T10:36:48.325Z,100844.01
2019-02-07T10:38:28.299Z,100854.55
2019-02-07T10:40:07.948Z,100855.05
2019-02-07T10:41:50.916Z,100847.34
2019-02-07T10:43:29.918Z,100850.85
2019-02-07T10:45:08.770Z,100847.67
2019-02-07T10:46:48.688Z,100848.68
2019-02-07T10:48:44.541Z,100851.36
2019-02-07T10:51:16.438Z,100859.40
2019-02-07T10:52:55.318Z,100860.05
2019-02-07T10:54:49.854Z,100858.39
2019-02-07T10:56:29.650Z,100858.72
2019-02-07T10:58:25.514Z,100862.73
2019-02-07T11:00:05.818Z,100860.05
2019-02-07T11:02:42.678Z,100858.89
2019-02-07T11:04:32.971Z,100866.43
2019-02-07T11:10:20.828Z,100864.73
2019-02-07T11:19:56.113Z,100849.66
2019-02-07T11:28:53.800Z,100843.28
2019-02-07T11:30:02.735Z,100845.96
2019-02-07T11:33:16.425Z,100843.61
2019-02-07T11:34:31.527Z,100842.27
2019-02-07T11:35:40.706Z,100845.78
2019-02-07T11:37:05.228Z,100837.23
2019-02-07T11:39:13.169Z,100838.90
2019-02-07T11:40:28.086Z,100842.92
2019-02-07T11:41:48.048Z,100844.44
2019-02-07T11:43:04.063Z,100849.12
2019-02-07T11:44:18.083Z,100847.78
2019-02-07T11:46:25.686Z,100844.59
2019-02-07T11:47:34.834Z,100844.95
2019-02-07T11:48:44.983Z,100853.83
2019-02-07T11:49:56.086Z,100852.30
2019-02-07T11:51:21.196Z,100848.28
2019-02-07T11:52:31.219Z,100846.44
2019-02-07T11:53:40.408Z,100844.08
2019-02-07T11:54:49.671Z,100842.41
2019-02-07T11:56:14.020Z,100843.06
2019-02-07T11:58:27.484Z,100827.84
2019-02-07T12:00:05.576Z,100842.55
2019-02-07T12:01:17.019Z,100831.50
2019-02-07T12:02:26.370Z,100830.31
2019-02-07T12:03:36.561Z,100832.16
2019-02-07T12:04:45.814Z,100828.46
2019-02-07T12:05:59.818Z,100827.13
2019-02-07T12:07:09.107Z,100826.47
2019-02-07T12:08:20.573Z,100829.30
2019-02-07T12:10:38.805Z,100827.13
2019-02-07T12:11:50.684Z,100829.15
2019-02-07T12:13:30.072Z,100829.98
2019-02-07T12:14:38.466Z,100820.92
2019-02-07T12:16:46.538Z,100818.42
2019-02-07T12:17:55.509Z,100823.75
2019-02-07T12:19:04.848Z,100819.40
2019-02-07T12:20:21.730Z,100817.55
2019-02-07T12:22:05.319Z,100811.86
2019-02-07T12:23:32.573Z,100811.35
2019-02-07T13:08:39.831Z,100774.19
2019-02-07T13:10:06.958Z,100777.20
2019-02-07T13:11:16.827Z,100766.84
2019-02-07T13:12:27.070Z,100776.88
2019-02-07T13:15:41.239Z,100771.52
2019-02-07T13:16:50.137Z,100768.18
2019-02-07T13:17:59.255Z,100770.35
2019-02-07T13:21:11.873Z,100764.48
2019-02-07T13:22:20.818Z,100772.34
2019-02-07T13:24:33.607Z,100768.83
2019-02-07T13:25:45.810Z,100769.66
2019-02-07T13:26:54.967Z,100773.50
2019-02-07T13:28:04.217Z,100766.80
2019-02-07T13:29:13.496Z,100765.45
2019-02-07T13:30:22.965Z,100763.80
2019-02-07T13:31:36.267Z,100761.44
2019-02-07T13:32:49.552Z,100763.10
2019-02-07T13:34:12.766Z,100758.75
2019-02-07T13:35:42.386Z,100750.56
2019-02-07T13:36:51.749Z,100748.36
2019-02-07T13:39:06.657Z,100741.00
2019-02-07T13:40:16.345Z,100752.73
2019-02-07T13:41:29.424Z,100745.85
2019-02-07T13:43:00.093Z,100748.71
2019-02-07T13:44:16.616Z,100746.68
2019-02-07T13:47:30.508Z,100752.05
2019-02-07T13:48:43.557Z,100740.81
2019-02-07T13:49:52.635Z,100738.45
2019-02-07T13:51:01.789Z,100733.41
2019-02-07T13:52:11.613Z,100722.89
2019-02-07T13:53:24.777Z,100726.20
2019-02-07T13:55:05.665Z,100728.56
2019-02-07T13:56:16.019Z,100727.36
2019-02-07T13:58:28.233Z,100721.16
2019-02-07T13:59:42.418Z,100709.98
2019-02-07T14:01:51.460Z,100720.14
2019-02-07T14:03:32.015Z,100717.82
2019-02-07T14:06:46.747Z,100723.83
2019-02-07T14:07:55.903Z,100701.89
2019-02-07T14:09:20.973Z,100698.37
2019-02-07T14:10:29.921Z,100708.06
2019-02-07T14:11:46.783Z,100698.36
2019-02-07T14:15:02.885Z,100704.05
2019-02-07T14:16:11.935Z,100677.55
2019-02-07T14:18:19.936Z,100677.87
2019-02-07T14:19:29.903Z,100679.22
2019-02-07T14:22:46.819Z,100670.16
2019-02-07T14:23:55.147Z,100666.12
2019-02-07T14:25:08.446Z,100664.79
2019-02-07T14:27:18.360Z,100661.09
2019-02-07T14:28:36.918Z,100662.11
2019-02-07T14:30:46.045Z,100660.10
2019-02-07T14:31:55.025Z,100655.72
2019-02-07T14:33:04.889Z,100658.76
2019-02-07T14:36:19.180Z,100656.08
2019-02-07T14:38:27.792Z,100651.04
2019-02-07T14:39:37.196Z,100647.52
2019-02-07T14:40:45.881Z,100642.99
2019-02-07T14:42:53.645Z,100640.31
2019-02-07T14:44:06.727Z,100642.99
2019-02-07T14:45:16.690Z,100641.97
2019-02-07T14:46:25.736Z,100642.99
2019-02-07T14:47:29.996Z,100639.48
2019-02-07T14:48:33.985Z,100643.83
2019-02-07T14:49:38.305Z,100636.61
2019-02-07T14:50:42.285Z,100635.78
2019-02-07T14:51:46.323Z,100635.27
2019-02-07T14:52:50.532Z,100627.73
2019-02-07T14:53:54.864Z,100624.73
2019-02-07T14:54:58.942Z,100617.84
2019-02-07T14:56:03.141Z,100623.71
2019-02-07T14:57:07.244Z,100624.03
2019-02-07T14:58:11.319Z,100617.20
2019-02-07T14:59:15.521Z,100627.55
2019-02-07T15:00:22.441Z,100631.89
2019-02-07T15:01:26.561Z,100626.53
2019-02-07T15:02:30.598Z,100624.67
2019-02-07T15:03:34.841Z,100621.16
2019-02-07T15:04:38.957Z,100617.46
2019-02-07T15:05:43.150Z,100618.30
2019-02-07T15:06:47.233Z,100613.77
2019-02-07T15:07:51.247Z,100618.30
2019-02-07T15:08:55.580Z,100617.78
2019-02-07T15:09:59.681Z,100613.44
2019-02-07T15:11:03.841Z,100613.11
2019-02-07T15:12:08.792Z,100616.12
2019-02-07T15:13:14.087Z,100616.44
2019-02-07T15:14:18.130Z,100616.44
2019-02-07T15:15:22.881Z,100602.77
2019-02-07T15:16:26.968Z,100608.39
2019-02-07T15:17:31.092Z,100614.08
2019-02-07T15:18:35.096Z,100607.38
2019-02-07T15:19:39.214Z,100605.72
2019-02-07T15:20:43.264Z,100602.02
2019-02-07T15:21:47.533Z,100598.82
2019-02-07T15:22:51.998Z,100586.48
2019-02-07T15:23:56.029Z,100593.97
2019-02-07T15:25:00.252Z,100596.48
2019-02-07T15:26:04.573Z,100589.28
2019-02-07T15:27:09.791Z,100591.45
2019-02-07T15:28:13.904Z,100592.12
2019-02-07T15:29:18.090Z,100585.92
2019-02-07T15:30:22.334Z,100585.92
2019-02-07T15:31:26.482Z,100581.06
2019-02-07T15:32:30.680Z,100581.39
2019-02-07T15:33:34.777Z,100586.27
2019-02-07T15:34:38.850Z,100580.40
2019-02-07T15:35:45.852Z,100576.37
2019-02-07T15:36:51.386Z,100574.53
2019-02-07T15:37:55.543Z,100573.19
2019-02-07T15:38:59.598Z,100563.48
2019-02-07T15:40:03.852Z,100562.77
2019-02-07T15:41:08.061Z,100560.80
2019-02-07T15:42:12.150Z,100573.00
2019-02-07T15:43:16.600Z,100563.28
2019-02-07T15:44:20.959Z,100554.41
2019-02-07T15:45:25.384Z,100566.80
2019-02-07T15:46:29.688Z,100556.58
2019-02-07T15:47:33.690Z,100564.44
2019-02-07T15:48:37.813Z,100556.39
2019-02-07T15:49:41.932Z,100550.70
2019-02-07T15:50:45.935Z,100553.06
2019-02-07T15:51:50.036Z,100555.23
2019-02-07T15:52:54.965Z,100551.73
2019-02-07T15:53:59.124Z,100547.70
2019-02-07T15:55:03.133Z,100546.05
2019-02-07T15:56:07.341Z,100550.06
2019-02-07T15:57:11.406Z,100543.36
2019-02-07T15:58:15.632Z,100545.34
2019-02-07T15:59:28.100Z,100539.14
2019-02-07T16:00:53.962Z,100535.13
2019-02-07T16:02:09.166Z,100531.61
2019-02-07T16:03:18.600Z,100537.30
2019-02-07T16:04:25.900Z,100531.94
2019-02-07T16:05:30.358Z,100526.56
2019-02-07T16:06:34.441Z,100526.25
2019-02-07T16:07:38.568Z,100517.88
2019-02-07T16:08:42.773Z,100511.84
2019-02-07T16:09:46.917Z,100507.50
2019-02-07T16:10:51.062Z,100507.50
2019-02-07T16:11:55.519Z,100503.99
2019-02-07T16:12:59.825Z,100501.31
2019-02-07T16:14:04.016Z,100500.16
2019-02-07T16:15:09.786Z,100503.16
2019-02-07T16:16:13.887Z,100496.78
2019-02-07T16:17:18.145Z,100496.78
2019-02-07T16:18:22.220Z,100496.27
2019-02-07T16:19:26.341Z,100494.61
2019-02-07T16:20:30.600Z,100485.09
2019-02-07T16:21:34.945Z,100494.09
2019-02-07T16:22:39.002Z,100491.61
2019-02-07T16:23:43.165Z,100489.75
2019-02-07T16:24:47.421Z,100482.92
2019-02-07T16:25:51.647Z,100473.03
2019-02-07T16:26:55.838Z,100481.90
2019-02-07T16:28:00.127Z,100474.56
2019-02-07T16:29:04.851Z,100470.34
2019-02-07T16:30:12.564Z,100467.66
2019-02-07T16:31:16.881Z,100471.69
2019-02-07T16:32:22.137Z,100465.68
2019-02-07T16:33:26.409Z,100471.37
2019-02-07T16:34:30.541Z,100460.95
2019-02-07T16:35:38.076Z,100457.95
2019-02-07T16:36:40.362Z,100457.25
2019-02-07T16:37:44.782Z,100459.94
2019-02-07T16:38:49.148Z,100451.89
2019-02-07T16:39:53.708Z,100448.70
2019-02-07T16:40:58.683Z,100445.19
2019-02-07T16:42:06.132Z,100447.87
2019-02-07T16:43:07.219Z,100437.14
2019-02-07T16:44:11.475Z,100441.80
2019-02-07T16:45:17.017Z,100429.61
2019-02-07T16:46:21.414Z,100429.80
2019-02-07T16:47:26.026Z,100428.30
2019-02-07T16:48:30.801Z,100427.47
2019-02-07T16:49:34.905Z,100427.98
2019-02-07T16:50:39.166Z,100419.11
2019-02-07T16:51:44.167Z,100425.62
2019-02-07T16:52:48.529Z,100425.62
2019-02-07T16:53:56.998Z,100415.41
2019-02-07T16:55:02.079Z,100417.06
2019-02-07T16:56:07.821Z,100415.92
2019-02-07T16:57:15.612Z,100403.09
2019-02-07T16:58:34.207Z,100412.92
2019-02-07T16:59:46.776Z,100408.06
2019-02-07T17:01:20.062Z,100400.34
2019-02-07T17:03:56.755Z,100403.02
2019-02-07T17:05:17.491Z,100405.70
2019-02-07T17:07:14.871Z,100398.48
2019-02-07T17:08:34.379Z,100398.69
2019-02-07T17:09:50.147Z,100396.31
2019-02-07T17:11:18.118Z,100394.34
2019-02-07T17:12:38.487Z,100402.70
2019-02-07T17:13:42.823Z,100398.05
2019-02-07T17:14:46.878Z,100399.90
2019-02-07T17:15:52.024Z,100401.05
2019-02-07T17:16:56.849Z,100394.34
2019-02-07T17:18:01.217Z,100394.66
2019-02-07T17:19:05.466Z,100390.52
2019-02-07T17:20:15.031Z,100391.70
2019-02-07T17:21:19.224Z,100391.53
2019-02-07T17:22:23.385Z,100388.34
2019-02-07T17:23:27.696Z,100390.00
2019-02-07T17:24:32.054Z,100383.62
2019-02-07T17:25:36.337Z,100381.95
2019-02-07T17:26:40.703Z,100383.11
2019-02-07T17:27:44.818Z,100383.42
2019-02-07T17:28:48.945Z,100380.04
2019-02-07T17:29:53.574Z,100376.20
2019-02-07T17:30:57.814Z,100368.16
2019-02-07T17:32:08.905Z,100370.21
2019-02-07T17:33:13.120Z,100361.72
2019-02-07T17:34:17.176Z,100376.20
2019-02-07T17:35:22.006Z,100370.84
2019-02-07T17:36:26.418Z,100371.87
2019-02-07T17:37:30.864Z,100364.53
2019-02-07T17:38:35.046Z,100361.78
2019-02-07T17:39:39.196Z,100359.30
2019-02-07T17:40:43.514Z,100356.61
2019-02-07T17:41:47.718Z,100352.08
2019-02-07T17:42:51.953Z,100352.08
2019-02-07T17:43:56.068Z,100345.88
2019-02-07T17:45:00.314Z,100342.69
2019-02-07T17:46:04.481Z,100346.72
2019-02-07T17:47:10.439Z,100345.88
2019-02-07T17:48:12.976Z,100333.30
2019-02-07T17:49:17.497Z,100336.30
2019-02-07T17:50:24.742Z,100334.33
2019-02-07T17:51:29.063Z,100326.60
2019-02-07T17:52:33.275Z,100316.46
2019-02-07T17:53:37.828Z,100314.92
2019-02-07T17:54:42.097Z,100320.22
2019-02-07T17:55:46.451Z,100311.54
2019-02-07T17:56:51.068Z,100311.73
2019-02-07T17:57:55.821Z,100308.11
2019-02-07T17:59:00.347Z,100312.88
2019-02-07T18:00:06.382Z,100302.03
2019-02-07T18:01:11.273Z,100300.06
2019-02-07T18:02:15.809Z,100304.91
2019-02-07T18:03:20.453Z,100293.84
2019-02-07T18:04:25.063Z,100298.20
2019-02-07T18:05:29.367Z,100290.16
2019-02-07T18:06:33.775Z,100286.82
2019-02-07T18:07:38.580Z,100284.33
2019-02-07T18:08:42.860Z,100280.11
2019-02-07T18:09:47.191Z,100282.80
2019-02-07T18:10:51.665Z,100277.75
2019-02-07T18:11:57.051Z,100273.73
2019-02-07T18:13:01.600Z,100265.69
2019-02-07T18:14:06.102Z,100266.66
2019-02-07T18:15:10.629Z,100270.38
2019-02-07T18:16:15.218Z,100253.27
2019-02-07T18:17:21.030Z,100255.75
2019-02-07T18:18:25.500Z,100252.55
2019-02-07T18:19:29.628Z,100260.28
2019-02-07T18:20:33.970Z,100256.77
2019-02-07T18:21:38.094Z,100251.61
2019-02-07T18:22:42.205Z,100248.41
2019-02-07T18:23:46.609Z,100245.92
2019-02-07T18:24:51.818Z,100244.59
2019-02-07T18:25:56.297Z,100247.27
2019-02-07T18:27:00.481Z,100237.05
2019-02-07T18:28:04.748Z,100243.25
2019-02-07T18:29:09.190Z,100238.88
2019-02-07T18:30:17.773Z,100226.45
2019-02-07T18:31:23.295Z,100233.47
2019-02-07T18:32:27.997Z,100233.98
2019-02-07T18:33:32.696Z,100224.80
2019-02-07T18:34:37.620Z,100216.48
2019-02-07T18:35:42.432Z,100220.11
2019-02-07T18:36:46.593Z,100219.80
2019-02-07T18:37:50.762Z,100215.09
2019-02-07T18:38:55.029Z,100221.28
2019-02-07T18:39:59.091Z,100214.97
2019-02-07T18:41:03.315Z,100212.65
2019-02-07T18:42:07.375Z,100208.70
2019-02-07T18:43:11.545Z,100207.68
2019-02-07T18:44:16.448Z,100200.98
2019-02-07T18:45:21.052Z,100205.20
2019-02-07T18:46:25.523Z,100199.33
2019-02-07T18:47:29.717Z,100196.69
2019-02-07T18:48:33.868Z,100203.55
2019-02-07T18:49:38.506Z,100193.58
2019-02-07T18:50:42.832Z,100203.71
2019-02-07T18:53:02.479Z,100197.52
2019-02-07T18:54:06.567Z,100196.89
2019-02-07T18:55:10.664Z,100196.06